sensor_id;sensor_type;location;lat;lon;timestamp;P1;durP1;ratioP1;P2;durP2;ratioP2
20734;SDS011;10528;52.124;5.196;2023-09-18T00:00:45;20.65;;;17.52;;
20734;SDS011;10528;52.124;5.196;2023-09-18T00:03:17;20.52;;;17.42;;
20734;SDS011;10528;52.124;5.196;2023-09-18T00:05:47;20.40;;;17.40;;
20734;SDS011;10528;52.124;5.196;2023-09-18T00:08:14;21.63;;;18.25;;
20734;SDS011;10528;52.124;5.196;2023-09-18T00:10:43;19.08;;;16.33;;
20734;SDS011;10528;52.124;5.196;2023-09-18T00:13:18;20.33;;;17.05;;
20734;SDS011;10528;52.124;5.196;2023-09-18T00:15:45;20.60;;;16.98;;
20734;SDS011;10528;52.124;5.196;2023-09-18T00:18:16;21.70;;;17.52;;
20734;SDS011;10528;52.124;5.196;2023-09-18T00:20:43;20.50;;;17.65;;
20734;SDS011;10528;52.124;5.196;2023-09-18T00:23:11;19.58;;;16.77;;
20734;SDS011;10528;52.124;5.196;2023-09-18T00:25:38;19.20;;;16.27;;
20734;SDS011;10528;52.124;5.196;2023-09-18T00:28:08;19.85;;;16.27;;
20734;SDS011;10528;52.124;5.196;2023-09-18T00:30:37;18.58;;;16.58;;
20734;SDS011;10528;52.124;5.196;2023-09-18T00:33:09;18.10;;;15.73;;
20734;SDS011;10528;52.124;5.196;2023-09-18T00:35:36;19.35;;;16.98;;
20734;SDS011;10528;52.124;5.196;2023-09-18T00:38:03;19.17;;;15.18;;
20734;SDS011;10528;52.124;5.196;2023-09-18T00:40:30;19.95;;;15.98;;
20734;SDS011;10528;52.124;5.196;2023-09-18T00:42:57;18.80;;;16.35;;
20734;SDS011;10528;52.124;5.196;2023-09-18T00:45:24;19.45;;;15.38;;
20734;SDS011;10528;52.124;5.196;2023-09-18T00:47:51;18.50;;;15.98;;
20734;SDS011;10528;52.124;5.196;2023-09-18T00:50:18;19.38;;;16.23;;
20734;SDS011;10528;52.124;5.196;2023-09-18T00:52:46;17.58;;;15.23;;
20734;SDS011;10528;52.124;5.196;2023-09-18T00:55:14;19.05;;;16.65;;
20734;SDS011;10528;52.124;5.196;2023-09-18T00:57:42;21.75;;;16.13;;
20734;SDS011;10528;52.124;5.196;2023-09-18T01:00:10;19.17;;;16.98;;
20734;SDS011;10528;52.124;5.196;2023-09-18T01:02:43;17.88;;;15.70;;
20734;SDS011;10528;52.124;5.196;2023-09-18T01:05:12;17.55;;;15.10;;
20734;SDS011;10528;52.124;5.196;2023-09-18T01:07:40;21.15;;;16.08;;
20734;SDS011;10528;52.124;5.196;2023-09-18T01:10:07;18.58;;;15.65;;
20734;SDS011;10528;52.124;5.196;2023-09-18T01:12:46;18.58;;;15.98;;
20734;SDS011;10528;52.124;5.196;2023-09-18T01:15:33;22.20;;;17.15;;
20734;SDS011;10528;52.124;5.196;2023-09-18T01:18:09;20.20;;;16.38;;
20734;SDS011;10528;52.124;5.196;2023-09-18T01:20:36;18.20;;;16.25;;
20734;SDS011;10528;52.124;5.196;2023-09-18T01:23:03;20.85;;;16.67;;
20734;SDS011;10528;52.124;5.196;2023-09-18T01:25:31;18.73;;;16.67;;
20734;SDS011;10528;52.124;5.196;2023-09-18T01:27:59;19.02;;;16.02;;
20734;SDS011;10528;52.124;5.196;2023-09-18T01:30:26;18.60;;;14.85;;
20734;SDS011;10528;52.124;5.196;2023-09-18T01:32:54;21.70;;;16.17;;
20734;SDS011;10528;52.124;5.196;2023-09-18T01:35:25;19.10;;;14.27;;
20734;SDS011;10528;52.124;5.196;2023-09-18T01:37:56;18.55;;;14.88;;
20734;SDS011;10528;52.124;5.196;2023-09-18T01:40:26;16.60;;;14.45;;
20734;SDS011;10528;52.124;5.196;2023-09-18T01:42:53;15.00;;;13.38;;
20734;SDS011;10528;52.124;5.196;2023-09-18T01:45:20;18.38;;;14.35;;
20734;SDS011;10528;52.124;5.196;2023-09-18T01:47:47;15.20;;;13.13;;
20734;SDS011;10528;52.124;5.196;2023-09-18T01:50:14;18.75;;;14.40;;
20734;SDS011;10528;52.124;5.196;2023-09-18T01:52:41;15.40;;;13.65;;
20734;SDS011;10528;52.124;5.196;2023-09-18T01:55:08;16.10;;;14.00;;
20734;SDS011;10528;52.124;5.196;2023-09-18T01:57:36;17.85;;;14.35;;
20734;SDS011;10528;52.124;5.196;2023-09-18T02:00:02;18.75;;;14.63;;
20734;SDS011;10528;52.124;5.196;2023-09-18T02:02:37;17.95;;;14.02;;
20734;SDS011;10528;52.124;5.196;2023-09-18T02:05:24;17.40;;;13.63;;
20734;SDS011;10528;52.124;5.196;2023-09-18T02:07:51;17.73;;;12.90;;
20734;SDS011;10528;52.124;5.196;2023-09-18T02:10:19;17.63;;;14.25;;
20734;SDS011;10528;52.124;5.196;2023-09-18T02:12:46;17.70;;;13.07;;
20734;SDS011;10528;52.124;5.196;2023-09-18T02:15:13;16.40;;;13.85;;
20734;SDS011;10528;52.124;5.196;2023-09-18T02:17:43;17.67;;;12.90;;
20734;SDS011;10528;52.124;5.196;2023-09-18T02:20:12;16.50;;;14.10;;
20734;SDS011;10528;52.124;5.196;2023-09-18T02:22:39;16.75;;;12.70;;
20734;SDS011;10528;52.124;5.196;2023-09-18T02:25:06;16.95;;;13.82;;
20734;SDS011;10528;52.124;5.196;2023-09-18T02:27:34;17.48;;;13.13;;
20734;SDS011;10528;52.124;5.196;2023-09-18T02:30:01;14.85;;;12.13;;
20734;SDS011;10528;52.124;5.196;2023-09-18T02:32:30;16.42;;;12.73;;
20734;SDS011;10528;52.124;5.196;2023-09-18T02:34:57;16.48;;;12.52;;
20734;SDS011;10528;52.124;5.196;2023-09-18T02:37:24;13.77;;;12.23;;
20734;SDS011;10528;52.124;5.196;2023-09-18T02:39:51;14.68;;;12.43;;
20734;SDS011;10528;52.124;5.196;2023-09-18T02:42:18;18.17;;;12.82;;
20734;SDS011;10528;52.124;5.196;2023-09-18T02:44:45;17.83;;;12.68;;
20734;SDS011;10528;52.124;5.196;2023-09-18T02:47:12;16.48;;;12.30;;
20734;SDS011;10528;52.124;5.196;2023-09-18T02:49:39;15.85;;;12.52;;
20734;SDS011;10528;52.124;5.196;2023-09-18T02:52:07;14.73;;;12.07;;
20734;SDS011;10528;52.124;5.196;2023-09-18T02:54:34;15.80;;;13.00;;
20734;SDS011;10528;52.124;5.196;2023-09-18T02:57:01;15.63;;;12.18;;
20734;SDS011;10528;52.124;5.196;2023-09-18T02:59:28;17.60;;;13.10;;
20734;SDS011;10528;52.124;5.196;2023-09-18T03:01:55;16.38;;;13.20;;
20734;SDS011;10528;52.124;5.196;2023-09-18T03:04:22;17.60;;;13.57;;
20734;SDS011;10528;52.124;5.196;2023-09-18T03:06:49;17.52;;;13.48;;
20734;SDS011;10528;52.124;5.196;2023-09-18T03:09:16;17.85;;;14.75;;
20734;SDS011;10528;52.124;5.196;2023-09-18T03:11:45;17.67;;;14.05;;
20734;SDS011;10528;52.124;5.196;2023-09-18T03:14:12;16.15;;;13.75;;
20734;SDS011;10528;52.124;5.196;2023-09-18T03:16:39;15.25;;;13.15;;
20734;SDS011;10528;52.124;5.196;2023-09-18T03:19:06;17.75;;;14.45;;
20734;SDS011;10528;52.124;5.196;2023-09-18T03:21:33;15.52;;;13.50;;
20734;SDS011;10528;52.124;5.196;2023-09-18T03:24:02;16.63;;;12.98;;
20734;SDS011;10528;52.124;5.196;2023-09-18T03:26:29;16.15;;;13.52;;
20734;SDS011;10528;52.124;5.196;2023-09-18T03:28:56;18.63;;;13.68;;
20734;SDS011;10528;52.124;5.196;2023-09-18T03:31:23;19.15;;;14.07;;
20734;SDS011;10528;52.124;5.196;2023-09-18T03:33:50;20.67;;;14.70;;
20734;SDS011;10528;52.124;5.196;2023-09-18T03:36:20;20.77;;;14.10;;
20734;SDS011;10528;52.124;5.196;2023-09-18T03:38:49;18.73;;;14.23;;
20734;SDS011;10528;52.124;5.196;2023-09-18T03:41:17;18.67;;;14.60;;
20734;SDS011;10528;52.124;5.196;2023-09-18T03:43:44;17.13;;;14.25;;
20734;SDS011;10528;52.124;5.196;2023-09-18T03:46:11;18.05;;;13.50;;
20734;SDS011;10528;52.124;5.196;2023-09-18T03:48:43;21.45;;;14.70;;
20734;SDS011;10528;52.124;5.196;2023-09-18T03:51:10;20.65;;;14.85;;
20734;SDS011;10528;52.124;5.196;2023-09-18T03:53:42;18.15;;;14.77;;
20734;SDS011;10528;52.124;5.196;2023-09-18T03:56:09;19.35;;;14.93;;
20734;SDS011;10528;52.124;5.196;2023-09-18T03:58:36;18.60;;;15.13;;
20734;SDS011;10528;52.124;5.196;2023-09-18T04:01:03;21.33;;;15.85;;
20734;SDS011;10528;52.124;5.196;2023-09-18T04:03:30;21.77;;;15.30;;
20734;SDS011;10528;52.124;5.196;2023-09-18T04:05:58;19.73;;;15.48;;
20734;SDS011;10528;52.124;5.196;2023-09-18T04:08:25;20.65;;;14.82;;
20734;SDS011;10528;52.124;5.196;2023-09-18T04:10:52;20.40;;;13.93;;
20734;SDS011;10528;52.124;5.196;2023-09-18T04:13:22;15.35;;;11.95;;
20734;SDS011;10528;52.124;5.196;2023-09-18T04:15:51;12.82;;;10.48;;
20734;SDS011;10528;52.124;5.196;2023-09-18T04:18:23;13.63;;;11.15;;
20734;SDS011;10528;52.124;5.196;2023-09-18T04:20:50;14.48;;;10.60;;
20734;SDS011;10528;52.124;5.196;2023-09-18T04:23:22;12.85;;;10.60;;
20734;SDS011;10528;52.124;5.196;2023-09-18T04:25:52;16.52;;;9.02;;
20734;SDS011;10528;52.124;5.196;2023-09-18T04:28:21;14.15;;;9.75;;
20734;SDS011;10528;52.124;5.196;2023-09-18T04:30:49;8.95;;;7.80;;
20734;SDS011;10528;52.124;5.196;2023-09-18T04:33:17;10.25;;;6.57;;
20734;SDS011;10528;52.124;5.196;2023-09-18T04:35:44;8.05;;;5.60;;
20734;SDS011;10528;52.124;5.196;2023-09-18T04:38:12;7.70;;;5.00;;
20734;SDS011;10528;52.124;5.196;2023-09-18T04:40:43;6.38;;;5.03;;
20734;SDS011;10528;52.124;5.196;2023-09-18T04:43:12;6.47;;;5.47;;
20734;SDS011;10528;52.124;5.196;2023-09-18T04:45:39;7.97;;;4.63;;
20734;SDS011;10528;52.124;5.196;2023-09-18T04:48:06;6.68;;;4.97;;
20734;SDS011;10528;52.124;5.196;2023-09-18T04:50:35;6.47;;;4.95;;
20734;SDS011;10528;52.124;5.196;2023-09-18T04:53:02;8.07;;;5.18;;
20734;SDS011;10528;52.124;5.196;2023-09-18T04:55:30;8.38;;;4.78;;
20734;SDS011;10528;52.124;5.196;2023-09-18T04:57:57;8.23;;;4.75;;
20734;SDS011;10528;52.124;5.196;2023-09-18T05:00:25;7.40;;;4.93;;
20734;SDS011;10528;52.124;5.196;2023-09-18T05:02:53;7.07;;;4.82;;
20734;SDS011;10528;52.124;5.196;2023-09-18T05:05:20;7.28;;;4.63;;
20734;SDS011;10528;52.124;5.196;2023-09-18T05:07:47;6.45;;;4.53;;
20734;SDS011;10528;52.124;5.196;2023-09-18T05:10:14;8.07;;;5.38;;
20734;SDS011;10528;52.124;5.196;2023-09-18T05:12:41;14.90;;;5.40;;
20734;SDS011;10528;52.124;5.196;2023-09-18T05:15:09;7.72;;;6.00;;
20734;SDS011;10528;52.124;5.196;2023-09-18T05:17:40;9.48;;;5.18;;
20734;SDS011;10528;52.124;5.196;2023-09-18T05:20:15;8.85;;;5.47;;
20734;SDS011;10528;52.124;5.196;2023-09-18T05:22:44;8.43;;;5.78;;
20734;SDS011;10528;52.124;5.196;2023-09-18T05:25:12;7.63;;;5.15;;
20734;SDS011;10528;52.124;5.196;2023-09-18T05:27:43;7.28;;;5.50;;
20734;SDS011;10528;52.124;5.196;2023-09-18T05:30:15;9.50;;;5.03;;
20734;SDS011;10528;52.124;5.196;2023-09-18T05:32:47;8.18;;;5.68;;
20734;SDS011;10528;52.124;5.196;2023-09-18T05:35:15;7.18;;;5.50;;
20734;SDS011;10528;52.124;5.196;2023-09-18T05:37:43;8.00;;;5.28;;
20734;SDS011;10528;52.124;5.196;2023-09-18T05:40:11;8.18;;;5.80;;
20734;SDS011;10528;52.124;5.196;2023-09-18T05:42:40;8.43;;;5.35;;
20734;SDS011;10528;52.124;5.196;2023-09-18T05:45:10;8.38;;;5.25;;
20734;SDS011;10528;52.124;5.196;2023-09-18T05:47:39;8.32;;;5.75;;
20734;SDS011;10528;52.124;5.196;2023-09-18T05:50:07;7.97;;;5.90;;
20734;SDS011;10528;52.124;5.196;2023-09-18T05:52:36;7.60;;;5.57;;
20734;SDS011;10528;52.124;5.196;2023-09-18T05:55:03;7.97;;;6.20;;
20734;SDS011;10528;52.124;5.196;2023-09-18T05:57:31;8.45;;;5.53;;
20734;SDS011;10528;52.124;5.196;2023-09-18T05:59:58;8.43;;;5.68;;
20734;SDS011;10528;52.124;5.196;2023-09-18T06:02:25;9.10;;;5.88;;
20734;SDS011;10528;52.124;5.196;2023-09-18T06:04:59;10.80;;;6.05;;
20734;SDS011;10528;52.124;5.196;2023-09-18T06:07:29;8.07;;;5.72;;
20734;SDS011;10528;52.124;5.196;2023-09-18T06:09:57;9.93;;;6.53;;
20734;SDS011;10528;52.124;5.196;2023-09-18T06:12:24;8.32;;;6.22;;
20734;SDS011;10528;52.124;5.196;2023-09-18T06:14:52;7.60;;;6.03;;
20734;SDS011;10528;52.124;5.196;2023-09-18T06:17:19;9.95;;;6.70;;
20734;SDS011;10528;52.124;5.196;2023-09-18T06:19:46;11.05;;;6.60;;
20734;SDS011;10528;52.124;5.196;2023-09-18T06:22:13;9.00;;;6.47;;
20734;SDS011;10528;52.124;5.196;2023-09-18T06:24:40;10.13;;;6.18;;
20734;SDS011;10528;52.124;5.196;2023-09-18T06:27:08;8.88;;;6.28;;
20734;SDS011;10528;52.124;5.196;2023-09-18T06:29:37;10.77;;;6.57;;
20734;SDS011;10528;52.124;5.196;2023-09-18T06:32:05;10.45;;;6.40;;
20734;SDS011;10528;52.124;5.196;2023-09-18T06:34:33;7.80;;;5.65;;
20734;SDS011;10528;52.124;5.196;2023-09-18T06:37:00;8.95;;;4.93;;
20734;SDS011;10528;52.124;5.196;2023-09-18T06:39:27;7.85;;;5.40;;
20734;SDS011;10528;52.124;5.196;2023-09-18T06:41:54;7.28;;;5.57;;
20734;SDS011;10528;52.124;5.196;2023-09-18T06:44:23;7.97;;;5.22;;
20734;SDS011;10528;52.124;5.196;2023-09-18T06:46:50;8.68;;;5.20;;
20734;SDS011;10528;52.124;5.196;2023-09-18T06:49:19;7.30;;;5.10;;
20734;SDS011;10528;52.124;5.196;2023-09-18T06:51:46;8.77;;;5.28;;
20734;SDS011;10528;52.124;5.196;2023-09-18T06:54:13;8.60;;;4.80;;
20734;SDS011;10528;52.124;5.196;2023-09-18T06:56:41;5.88;;;4.70;;
20734;SDS011;10528;52.124;5.196;2023-09-18T06:59:10;7.65;;;5.13;;
20734;SDS011;10528;52.124;5.196;2023-09-18T07:01:38;7.35;;;5.05;;
20734;SDS011;10528;52.124;5.196;2023-09-18T07:04:08;9.07;;;4.70;;
20734;SDS011;10528;52.124;5.196;2023-09-18T07:06:36;7.22;;;4.53;;
20734;SDS011;10528;52.124;5.196;2023-09-18T07:09:04;7.78;;;5.03;;
20734;SDS011;10528;52.124;5.196;2023-09-18T07:11:33;6.88;;;5.38;;
20734;SDS011;10528;52.124;5.196;2023-09-18T07:14:00;8.20;;;5.70;;
20734;SDS011;10528;52.124;5.196;2023-09-18T07:16:32;6.47;;;4.82;;
20734;SDS011;10528;52.124;5.196;2023-09-18T07:19:00;6.93;;;4.80;;
20734;SDS011;10528;52.124;5.196;2023-09-18T07:21:31;6.68;;;5.40;;
20734;SDS011;10528;52.124;5.196;2023-09-18T07:23:58;8.43;;;5.25;;
20734;SDS011;10528;52.124;5.196;2023-09-18T07:26:25;8.18;;;5.07;;
20734;SDS011;10528;52.124;5.196;2023-09-18T07:28:52;6.15;;;5.07;;
20734;SDS011;10528;52.124;5.196;2023-09-18T07:31:19;7.57;;;6.05;;
20734;SDS011;10528;52.124;5.196;2023-09-18T07:33:46;7.80;;;5.35;;
20734;SDS011;10528;52.124;5.196;2023-09-18T07:36:14;9.45;;;5.20;;
20734;SDS011;10528;52.124;5.196;2023-09-18T07:38:41;8.82;;;5.53;;
20734;SDS011;10528;52.124;5.196;2023-09-18T07:41:09;8.35;;;5.68;;
20734;SDS011;10528;52.124;5.196;2023-09-18T07:43:36;9.32;;;5.38;;
20734;SDS011;10528;52.124;5.196;2023-09-18T07:46:05;7.80;;;5.47;;
20734;SDS011;10528;52.124;5.196;2023-09-18T07:48:32;7.00;;;5.15;;
20734;SDS011;10528;52.124;5.196;2023-09-18T07:51:00;6.63;;;5.47;;
20734;SDS011;10528;52.124;5.196;2023-09-18T07:53:27;7.97;;;5.82;;
20734;SDS011;10528;52.124;5.196;2023-09-18T07:55:57;9.90;;;5.45;;
20734;SDS011;10528;52.124;5.196;2023-09-18T07:58:26;5.80;;;5.20;;
20734;SDS011;10528;52.124;5.196;2023-09-18T08:00:57;9.15;;;5.95;;
20734;SDS011;10528;52.124;5.196;2023-09-18T08:03:24;6.90;;;5.47;;
20734;SDS011;10528;52.124;5.196;2023-09-18T08:05:52;7.32;;;5.97;;
20734;SDS011;10528;52.124;5.196;2023-09-18T08:08:20;8.23;;;5.90;;
20734;SDS011;10528;52.124;5.196;2023-09-18T08:10:50;7.78;;;5.70;;
20734;SDS011;10528;52.124;5.196;2023-09-18T08:13:18;7.50;;;5.40;;
20734;SDS011;10528;52.124;5.196;2023-09-18T08:15:46;7.78;;;5.00;;
20734;SDS011;10528;52.124;5.196;2023-09-18T08:18:13;6.88;;;4.88;;
20734;SDS011;10528;52.124;5.196;2023-09-18T08:20:43;8.23;;;5.05;;
20734;SDS011;10528;52.124;5.196;2023-09-18T08:23:10;6.20;;;4.82;;
20734;SDS011;10528;52.124;5.196;2023-09-18T08:25:39;6.32;;;4.72;;
20734;SDS011;10528;52.124;5.196;2023-09-18T08:28:09;7.90;;;5.13;;
20734;SDS011;10528;52.124;5.196;2023-09-18T08:30:36;6.53;;;4.78;;
20734;SDS011;10528;52.124;5.196;2023-09-18T08:33:06;6.57;;;4.57;;
20734;SDS011;10528;52.124;5.196;2023-09-18T08:35:33;6.03;;;4.75;;
20734;SDS011;10528;52.124;5.196;2023-09-18T08:38:00;7.65;;;4.95;;
20734;SDS011;10528;52.124;5.196;2023-09-18T08:40:27;4.97;;;4.22;;
20734;SDS011;10528;52.124;5.196;2023-09-18T08:42:55;6.35;;;4.53;;
20734;SDS011;10528;52.124;5.196;2023-09-18T08:45:38;8.13;;;4.32;;
20734;SDS011;10528;52.124;5.196;2023-09-18T08:48:14;5.85;;;3.60;;
20734;SDS011;10528;52.124;5.196;2023-09-18T08:50:41;7.55;;;4.50;;
20734;SDS011;10528;52.124;5.196;2023-09-18T08:53:11;9.15;;;4.75;;
20734;SDS011;10528;52.124;5.196;2023-09-18T08:55:38;7.45;;;4.25;;
20734;SDS011;10528;52.124;5.196;2023-09-18T08:58:06;6.57;;;4.18;;
20734;SDS011;10528;52.124;5.196;2023-09-18T09:00:36;6.75;;;3.90;;
20734;SDS011;10528;52.124;5.196;2023-09-18T09:03:04;6.88;;;3.95;;
20734;SDS011;10528;52.124;5.196;2023-09-18T09:05:32;5.80;;;3.53;;
20734;SDS011;10528;52.124;5.196;2023-09-18T09:07:59;6.25;;;3.80;;
20734;SDS011;10528;52.124;5.196;2023-09-18T09:10:27;4.82;;;3.60;;
20734;SDS011;10528;52.124;5.196;2023-09-18T09:12:58;6.32;;;3.80;;
20734;SDS011;10528;52.124;5.196;2023-09-18T09:15:28;4.60;;;2.97;;
20734;SDS011;10528;52.124;5.196;2023-09-18T09:18:03;5.53;;;3.70;;
20734;SDS011;10528;52.124;5.196;2023-09-18T09:20:32;5.13;;;3.47;;
20734;SDS011;10528;52.124;5.196;2023-09-18T09:23:02;5.40;;;3.70;;
20734;SDS011;10528;52.124;5.196;2023-09-18T09:25:33;6.03;;;3.72;;
20734;SDS011;10528;52.124;5.196;2023-09-18T09:28:02;5.53;;;3.92;;
20734;SDS011;10528;52.124;5.196;2023-09-18T09:30:32;7.07;;;3.80;;
20734;SDS011;10528;52.124;5.196;2023-09-18T09:33:04;6.10;;;3.58;;
20734;SDS011;10528;52.124;5.196;2023-09-18T09:35:35;3.63;;;3.15;;
20734;SDS011;10528;52.124;5.196;2023-09-18T09:38:10;6.40;;;3.55;;
20734;SDS011;10528;52.124;5.196;2023-09-18T09:40:41;4.75;;;3.55;;
20734;SDS011;10528;52.124;5.196;2023-09-18T09:43:11;6.47;;;3.60;;
20734;SDS011;10528;52.124;5.196;2023-09-18T09:45:41;6.05;;;3.67;;
20734;SDS011;10528;52.124;5.196;2023-09-18T09:48:12;5.60;;;4.78;;
20734;SDS011;10528;52.124;5.196;2023-09-18T09:50:46;6.82;;;4.47;;
20734;SDS011;10528;52.124;5.196;2023-09-18T09:53:15;7.45;;;4.55;;
20734;SDS011;10528;52.124;5.196;2023-09-18T09:55:42;5.38;;;4.20;;
20734;SDS011;10528;52.124;5.196;2023-09-18T09:58:10;6.60;;;4.93;;
20734;SDS011;10528;52.124;5.196;2023-09-18T10:00:44;5.60;;;5.07;;
20734;SDS011;10528;52.124;5.196;2023-09-18T10:03:16;6.30;;;5.68;;
20734;SDS011;10528;52.124;5.196;2023-09-18T10:05:46;6.97;;;5.90;;
20734;SDS011;10528;52.124;5.196;2023-09-18T10:08:19;9.18;;;5.80;;
20734;SDS011;10528;52.124;5.196;2023-09-18T10:11:01;6.57;;;5.50;;
20734;SDS011;10528;52.124;5.196;2023-09-18T10:13:42;6.88;;;5.03;;
20734;SDS011;10528;52.124;5.196;2023-09-18T10:16:16;7.75;;;5.22;;
20734;SDS011;10528;52.124;5.196;2023-09-18T10:18:51;6.30;;;5.05;;
20734;SDS011;10528;52.124;5.196;2023-09-18T10:21:49;6.30;;;4.53;;
20734;SDS011;10528;52.124;5.196;2023-09-18T10:24:35;5.60;;;4.25;;
20734;SDS011;10528;52.124;5.196;2023-09-18T10:27:07;7.53;;;4.80;;
20734;SDS011;10528;52.124;5.196;2023-09-18T10:29:40;6.97;;;4.20;;
20734;SDS011;10528;52.124;5.196;2023-09-18T10:32:10;5.97;;;4.10;;
20734;SDS011;10528;52.124;5.196;2023-09-18T10:34:39;6.03;;;4.00;;
20734;SDS011;10528;52.124;5.196;2023-09-18T10:37:10;6.03;;;3.85;;
20734;SDS011;10528;52.124;5.196;2023-09-18T10:39:38;5.63;;;4.05;;
20734;SDS011;10528;52.124;5.196;2023-09-18T10:42:08;6.88;;;3.80;;
20734;SDS011;10528;52.124;5.196;2023-09-18T10:44:36;4.85;;;3.60;;
20734;SDS011;10528;52.124;5.196;2023-09-18T10:47:06;4.57;;;3.45;;
20734;SDS011;10528;52.124;5.196;2023-09-18T10:49:37;6.07;;;3.80;;
20734;SDS011;10528;52.124;5.196;2023-09-18T10:52:04;5.18;;;3.70;;
20734;SDS011;10528;52.124;5.196;2023-09-18T10:54:37;8.40;;;3.80;;
20734;SDS011;10528;52.124;5.196;2023-09-18T10:57:05;8.80;;;4.20;;
20734;SDS011;10528;52.124;5.196;2023-09-18T10:59:32;5.63;;;4.22;;
20734;SDS011;10528;52.124;5.196;2023-09-18T11:02:03;5.13;;;4.45;;
20734;SDS011;10528;52.124;5.196;2023-09-18T11:04:33;6.20;;;4.53;;
20734;SDS011;10528;52.124;5.196;2023-09-18T11:07:00;8.60;;;4.63;;
20734;SDS011;10528;52.124;5.196;2023-09-18T11:09:30;8.82;;;4.65;;
20734;SDS011;10528;52.124;5.196;2023-09-18T11:12:08;8.32;;;4.43;;
20734;SDS011;10528;52.124;5.196;2023-09-18T11:14:47;5.10;;;4.20;;
20734;SDS011;10528;52.124;5.196;2023-09-18T11:20:47;6.75;;;4.00;;
20734;SDS011;10528;52.124;5.196;2023-09-18T11:26:09;4.78;;;3.50;;
20734;SDS011;10528;52.124;5.196;2023-09-18T11:28:37;4.60;;;3.60;;
20734;SDS011;10528;52.124;5.196;2023-09-18T11:31:05;6.10;;;3.70;;
20734;SDS011;10528;52.124;5.196;2023-09-18T11:33:36;7.05;;;3.60;;
20734;SDS011;10528;52.124;5.196;2023-09-18T11:36:15;7.70;;;3.47;;
20734;SDS011;10528;52.124;5.196;2023-09-18T11:38:59;6.25;;;3.58;;
20734;SDS011;10528;52.124;5.196;2023-09-18T11:41:31;5.93;;;3.20;;
20734;SDS011;10528;52.124;5.196;2023-09-18T11:44:50;6.45;;;3.53;;
20734;SDS011;10528;52.124;5.196;2023-09-18T11:46:55;7.40;;;3.40;;
20734;SDS011;10528;52.124;5.196;2023-09-18T11:49:24;6.35;;;3.88;;
20734;SDS011;10528;52.124;5.196;2023-09-18T11:51:54;4.80;;;3.65;;
20734;SDS011;10528;52.124;5.196;2023-09-18T11:54:27;5.97;;;3.40;;
20734;SDS011;10528;52.124;5.196;2023-09-18T11:56:55;6.82;;;3.10;;
20734;SDS011;10528;52.124;5.196;2023-09-18T11:59:34;5.55;;;3.15;;
20734;SDS011;10528;52.124;5.196;2023-09-18T12:02:11;5.35;;;3.78;;
20734;SDS011;10528;52.124;5.196;2023-09-18T12:04:47;8.32;;;3.30;;
20734;SDS011;10528;52.124;5.196;2023-09-18T12:07:17;6.70;;;3.72;;
20734;SDS011;10528;52.124;5.196;2023-09-18T12:09:45;7.63;;;3.50;;
20734;SDS011;10528;52.124;5.196;2023-09-18T12:12:12;6.05;;;3.63;;
20734;SDS011;10528;52.124;5.196;2023-09-18T12:14:42;3.97;;;3.13;;
20734;SDS011;10528;52.124;5.196;2023-09-18T12:17:13;5.25;;;4.07;;
20734;SDS011;10528;52.124;5.196;2023-09-18T12:19:54;6.20;;;4.22;;
20734;SDS011;10528;52.124;5.196;2023-09-18T12:22:26;6.70;;;4.13;;
20734;SDS011;10528;52.124;5.196;2023-09-18T12:25:08;6.55;;;4.28;;
20734;SDS011;10528;52.124;5.196;2023-09-18T12:27:42;7.35;;;4.25;;
20734;SDS011;10528;52.124;5.196;2023-09-18T12:30:09;7.45;;;4.28;;
20734;SDS011;10528;52.124;5.196;2023-09-18T12:32:38;5.90;;;3.45;;
20734;SDS011;10528;52.124;5.196;2023-09-18T12:35:06;4.97;;;3.38;;
20734;SDS011;10528;52.124;5.196;2023-09-18T12:37:40;6.28;;;3.03;;
20734;SDS011;10528;52.124;5.196;2023-09-18T12:40:24;4.45;;;2.95;;
20734;SDS011;10528;52.124;5.196;2023-09-18T12:42:56;5.88;;;3.20;;
20734;SDS011;10528;52.124;5.196;2023-09-18T12:45:26;6.45;;;3.15;;
20734;SDS011;10528;52.124;5.196;2023-09-18T12:47:54;8.65;;;3.40;;
20734;SDS011;10528;52.124;5.196;2023-09-18T12:50:24;5.07;;;3.22;;
20734;SDS011;10528;52.124;5.196;2023-09-18T12:52:52;5.68;;;3.08;;
20734;SDS011;10528;52.124;5.196;2023-09-18T12:55:26;4.03;;;3.17;;
20734;SDS011;10528;52.124;5.196;2023-09-18T12:57:54;5.30;;;3.22;;
20734;SDS011;10528;52.124;5.196;2023-09-18T13:00:22;5.07;;;3.40;;
20734;SDS011;10528;52.124;5.196;2023-09-18T13:02:50;4.80;;;3.47;;
20734;SDS011;10528;52.124;5.196;2023-09-18T13:05:21;4.80;;;3.78;;
20734;SDS011;10528;52.124;5.196;2023-09-18T13:07:53;6.13;;;4.35;;
20734;SDS011;10528;52.124;5.196;2023-09-18T13:10:20;7.40;;;4.25;;
20734;SDS011;10528;52.124;5.196;2023-09-18T13:12:52;7.45;;;4.50;;
20734;SDS011;10528;52.124;5.196;2023-09-18T13:17:58;7.30;;;4.78;;
20734;SDS011;10528;52.124;5.196;2023-09-18T13:20:36;7.50;;;4.72;;
20734;SDS011;10528;52.124;5.196;2023-09-18T13:23:03;7.20;;;4.70;;
20734;SDS011;10528;52.124;5.196;2023-09-18T13:25:31;6.55;;;4.22;;
20734;SDS011;10528;52.124;5.196;2023-09-18T13:28:05;5.68;;;4.65;;
20734;SDS011;10528;52.124;5.196;2023-09-18T13:30:37;8.65;;;4.50;;
20734;SDS011;10528;52.124;5.196;2023-09-18T13:33:07;6.63;;;4.15;;
20734;SDS011;10528;52.124;5.196;2023-09-18T13:35:40;5.43;;;4.13;;
20734;SDS011;10528;52.124;5.196;2023-09-18T13:38:10;9.82;;;4.18;;
20734;SDS011;10528;52.124;5.196;2023-09-18T13:40:38;6.85;;;3.95;;
20734;SDS011;10528;52.124;5.196;2023-09-18T13:43:07;5.38;;;3.78;;
20734;SDS011;10528;52.124;5.196;2023-09-18T13:45:35;8.13;;;4.00;;
20734;SDS011;10528;52.124;5.196;2023-09-18T13:48:04;6.20;;;4.10;;
20734;SDS011;10528;52.124;5.196;2023-09-18T13:50:33;5.40;;;3.67;;
20734;SDS011;10528;52.124;5.196;2023-09-18T13:53:02;5.57;;;3.80;;
20734;SDS011;10528;52.124;5.196;2023-09-18T13:55:33;5.82;;;3.50;;
20734;SDS011;10528;52.124;5.196;2023-09-18T13:58:01;6.30;;;3.80;;
20734;SDS011;10528;52.124;5.196;2023-09-18T14:00:30;6.10;;;3.35;;
20734;SDS011;10528;52.124;5.196;2023-09-18T14:02:58;4.45;;;3.10;;
20734;SDS011;10528;52.124;5.196;2023-09-18T14:05:26;5.32;;;2.80;;
20734;SDS011;10528;52.124;5.196;2023-09-18T14:07:55;5.32;;;2.70;;
20734;SDS011;10528;52.124;5.196;2023-09-18T14:10:26;4.53;;;2.47;;
20734;SDS011;10528;52.124;5.196;2023-09-18T14:12:54;3.45;;;2.13;;
20734;SDS011;10528;52.124;5.196;2023-09-18T14:15:21;2.90;;;2.10;;
20734;SDS011;10528;52.124;5.196;2023-09-18T14:17:49;3.88;;;1.80;;
20734;SDS011;10528;52.124;5.196;2023-09-18T14:20:16;5.82;;;2.10;;
20734;SDS011;10528;52.124;5.196;2023-09-18T14:22:46;4.13;;;2.10;;
20734;SDS011;10528;52.124;5.196;2023-09-18T14:25:17;4.93;;;2.00;;
20734;SDS011;10528;52.124;5.196;2023-09-18T14:27:46;4.13;;;1.65;;
20734;SDS011;10528;52.124;5.196;2023-09-18T14:30:13;3.30;;;1.90;;
20734;SDS011;10528;52.124;5.196;2023-09-18T14:32:40;5.28;;;2.20;;
20734;SDS011;10528;52.124;5.196;2023-09-18T14:35:08;5.88;;;1.90;;
20734;SDS011;10528;52.124;5.196;2023-09-18T14:37:36;6.20;;;1.92;;
20734;SDS011;10528;52.124;5.196;2023-09-18T14:40:03;3.50;;;1.92;;
20734;SDS011;10528;52.124;5.196;2023-09-18T14:42:31;4.60;;;2.03;;
20734;SDS011;10528;52.124;5.196;2023-09-18T14:45:00;4.20;;;2.20;;
20734;SDS011;10528;52.124;5.196;2023-09-18T14:47:28;4.53;;;2.28;;
20734;SDS011;10528;52.124;5.196;2023-09-18T14:49:56;5.20;;;2.22;;
20734;SDS011;10528;52.124;5.196;2023-09-18T14:52:25;3.47;;;1.90;;
20734;SDS011;10528;52.124;5.196;2023-09-18T14:54:52;3.88;;;2.22;;
20734;SDS011;10528;52.124;5.196;2023-09-18T14:57:19;3.45;;;1.60;;
20734;SDS011;10528;52.124;5.196;2023-09-18T14:59:46;2.58;;;1.70;;
20734;SDS011;10528;52.124;5.196;2023-09-18T15:02:14;4.30;;;2.25;;